地図

経路データ

SID SEASON NUMBER BASIN SUBBASIN NAME ISO_TIME NATURE LAT LON WMO_WIND WMO_PRES WMO_AGENCY TRACK_TYPE DIST2LAND LANDFALL IFLAG USA_AGENCY USA_ATCF_ID USA_LAT USA_LON USA_RECORD USA_STATUS USA_WIND USA_PRES USA_SSHS USA_R34_NE USA_R34_SE USA_R34_SW USA_R34_NW USA_R50_NE USA_R50_SE USA_R50_SW USA_R50_NW USA_R64_NE USA_R64_SE USA_R64_SW USA_R64_NW USA_POCI USA_ROCI USA_RMW USA_EYE TOKYO_LAT TOKYO_LON TOKYO_GRADE TOKYO_WIND TOKYO_PRES TOKYO_R50_DIR TOKYO_R50_LONG TOKYO_R50_SHORT TOKYO_R30_DIR TOKYO_R30_LONG TOKYO_R30_SHORT TOKYO_LAND CMA_LAT CMA_LON CMA_CAT CMA_WIND CMA_PRES HKO_LAT HKO_LON HKO_CAT HKO_WIND HKO_PRES NEWDELHI_LAT NEWDELHI_LON NEWDELHI_GRADE NEWDELHI_WIND NEWDELHI_PRES NEWDELHI_CI NEWDELHI_DP NEWDELHI_POCI REUNION_LAT REUNION_LON REUNION_TYPE REUNION_WIND REUNION_PRES REUNION_TNUM REUNION_CI REUNION_RMW REUNION_R34_NE REUNION_R34_SE REUNION_R34_SW REUNION_R34_NW REUNION_R50_NE REUNION_R50_SE REUNION_R50_SW REUNION_R50_NW REUNION_R64_NE REUNION_R64_SE REUNION_R64_SW REUNION_R64_NW BOM_LAT BOM_LON BOM_TYPE BOM_WIND BOM_PRES BOM_TNUM BOM_CI BOM_RMW BOM_R34_NE BOM_R34_SE BOM_R34_SW BOM_R34_NW BOM_R50_NE BOM_R50_SE BOM_R50_SW BOM_R50_NW BOM_R64_NE BOM_R64_SE BOM_R64_SW BOM_R64_NW BOM_ROCI BOM_POCI BOM_EYE BOM_POS_METHOD BOM_PRES_METHOD NADI_LAT NADI_LON NADI_CAT NADI_WIND NADI_PRES WELLINGTON_LAT WELLINGTON_LON WELLINGTON_WIND WELLINGTON_PRES DS824_LAT DS824_LON DS824_STAGE DS824_WIND DS824_PRES TD9636_LAT TD9636_LON TD9636_STAGE TD9636_WIND TD9636_PRES TD9635_LAT TD9635_LON TD9635_WIND TD9635_PRES TD9635_ROCI NEUMANN_LAT NEUMANN_LON NEUMANN_CLASS NEUMANN_WIND NEUMANN_PRES MLC_LAT MLC_LON MLC_CLASS MLC_WIND MLC_PRES USA_GUST BOM_GUST BOM_GUST_PER REUNION_GUST REUNION_GUST_PER USA_SEAHGT USA_SEARAD_NE USA_SEARAD_SE USA_SEARAD_SW USA_SEARAD_NW STORM_SPEED STORM_DIR
2013224N12220 2013 45 EP MM UNALA 2013-08-12 06:00:00 NR 12.0000 220.400 20 1010 hurdat_epa main 1829 1782 O_____________ hurdat_epa CP022013 12.0000 -139.600 DB 20 1010 -3 1012 120 40 9 272
2013224N12220 2013 45 EP CP UNALA 2013-08-12 09:00:00 NR 12.0176 219.923 main 1782 1735 P_____________ CP022013 12.0176 -140.077 DB 22 1009 -3 1011 135 50 10 270
2013224N12220 2013 45 EP CP UNALA 2013-08-12 12:00:00 NR 12.0000 219.400 25 1009 hurdat_epa main 1735 1685 O_____________ hurdat_epa CP022013 12.0000 -140.600 DB 25 1009 -3 1011 150 60 11 265
2013224N12220 2013 45 EP CP UNALA 2013-08-12 15:00:00 NR 11.9225 218.807 main 1685 1636 P_____________ CP022013 11.9225 -141.193 DB 25 1009 -3 1011 150 60 12 260
2013224N12220 2013 45 EP CP UNALA 2013-08-12 18:00:00 NR 11.8000 218.200 25 1009 hurdat_epa main 1636 1597 O_____________ hurdat_epa CP022013 11.8000 -141.800 DB 25 1009 -3 1011 150 60 12 258
2013224N12220 2013 45 EP CP UNALA 2013-08-12 21:00:00 NR 11.6724 217.628 main 1588 1557 P_____________ CP022013 11.6724 -142.372 DB 25 1008 -3 1010 150 60 11 254
2013224N12220 2013 45 EP CP UNALA 2013-08-13 00:00:00 NR 11.5000 217.100 25 1008 hurdat_epa main 1557 1536 O_____________ hurdat_epa CP022013 11.5000 -142.900 DB 25 1008 -3 1010 150 60 10 244
2013224N12220 2013 45 EP CP UNALA 2013-08-13 03:00:00 NR 11.2270 216.695 main 1543 1515 P_____________ CP022013 11.2270 -143.305 DB 25 1008 -3 1010 150 60 10 240
2013224N12220 2013 45 EP CP UNALA 2013-08-13 06:00:00 NR 11.0000 216.200 25 1008 hurdat_epa main 1515 1457 O_____________ hurdat_epa CP022013 11.0000 -143.800 DB 25 1008 -3 1010 150 60 13 258
2013224N12220 2013 45 EP CP UNALA 2013-08-13 09:00:00 NR 10.9627 215.410 main 1449 1385 P_____________ CP022013 10.9627 -144.590 DB 25 1008 -3 1010 150 60 17 270
2013224N12220 2013 45 EP CP UNALA 2013-08-13 12:00:00 NR 11.0000 214.500 25 1008 hurdat_epa main 1378 1316 O_____________ hurdat_epa CP022013 11.0000 -145.500 DB 25 1008 -3 1010 150 60 17 271
2013224N12220 2013 45 EP CP UNALA 2013-08-13 15:00:00 NR 10.9848 213.650 main 1309 1250 P_____________ CP022013 10.9848 -146.350 DB 25 1008 -3 1010 135 52 17 270
2013224N12220 2013 45 EP CP UNALA 2013-08-13 18:00:00 NR 11.0000 212.800 25 1009 hurdat_epa main 1250 1185 O_____________ hurdat_epa CP022013 11.0000 -147.200 DB 25 1009 -3 1010 120 45 17 274
2013224N12220 2013 45 EP CP UNALA 2013-08-13 21:00:00 NR 11.0922 211.958 main 1185 1117 P_____________ CP022013 11.0922 -148.042 DB 25 1009 -3 1010 120 42 17 277
2013224N12220 2013 45 EP CP UNALA 2013-08-14 00:00:00 NR 11.2000 211.100 25 1009 hurdat_epa main 1117 1070 O_____________ hurdat_epa CP022013 11.2000 -148.900 DB 25 1009 -3 1010 120 40 17 275
2013224N12220 2013 45 EP CP UNALA 2013-08-14 03:00:00 NR 11.2348 210.207 main 1064 1011 P_____________ CP022013 11.2348 -149.793 DB 25 1009 -3 1010 130 42 18 273
2013224N12220 2013 45 EP CP UNALA 2013-08-14 06:00:00 NR 11.3000 209.300 25 1009 hurdat_epa main 1005 937 O_____________ hurdat_epa CP022013 11.3000 -150.700 DB 25 1009 -3 1011 140 45 18 277
2013224N12220 2013 45 EP CP UNALA 2013-08-14 09:00:00 NR 11.4624 208.378 main 937 875 P_____________ CP022013 11.4624 -151.622 DB 25 1009 -3 1011 140 45 18 283
2013224N12220 2013 45 EP CP UNALA 2013-08-14 12:00:00 NR 11.7000 207.500 25 1009 hurdat_epa main 875 817 O_____________ hurdat_epa CP022013 11.7000 -152.500 DB 25 1009 -3 1011 140 45 17 289
2013224N12220 2013 45 EP CP UNALA 2013-08-14 15:00:00 NR 12.0143 206.758 main 817 760 P_____________ CP022013 12.0143 -153.242 DB 25 1009 -3 1011 140 45 16 292
2013224N12220 2013 45 EP CP UNALA 2013-08-14 18:00:00 NR 12.3000 206.000 25 1009 hurdat_epa main 760 732 O_____________ hurdat_epa CP022013 12.3000 -154.000 DB 25 1009 -3 1011 140 45 17 285
2013224N12220 2013 45 EP CP UNALA 2013-08-14 21:00:00 NR 12.4452 205.057 main 732 716 P_____________ CP022013 12.4452 -154.943 DB 25 1009 -3 1011 140 45 19 276
2013224N12220 2013 45 EP CP UNALA 2013-08-15 00:00:00 NR 12.5000 204.100 25 1010 hurdat_epa main 716 716 O_____________ hurdat_epa CP022013 12.5000 -155.900 DB 25 1010 -3 1011 140 45 17 273
2013224N12220 2013 45 EP CP UNALA 2013-08-15 03:00:00 NR 12.5295 203.277 main 724 724 P_____________ CP022013 12.5295 -156.723 DB 27 1010 -3 1011 115 67 16 270
2013224N12220 2013 45 EP CP UNALA 2013-08-15 06:00:00 NR 12.5000 202.500 30 1010 hurdat_epa main 741 741 O_____________ hurdat_epa CP022013 12.5000 -157.500 DB 30 1010 -3 1011 90 90 16 265
2013224N12220 2013 45 EP CP UNALA 2013-08-15 09:00:00 NR 12.3998 201.692 main 778 778 P_____________ CP022013 12.3998 -158.308 DB 30 1010 -3 1011 120 75 16 263
2013224N12220 2013 45 EP CP UNALA 2013-08-15 12:00:00 NR 12.3000 200.900 30 1010 hurdat_epa main 823 823 O_____________ hurdat_epa CP022013 12.3000 -159.100 DB 30 1010 -3 1011 150 60 40 15 265
2013224N12220 2013 45 EP CP UNALA 2013-08-15 15:00:00 NR 12.2697 200.143 main 864 864 P_____________ CP022013 12.2697 -159.857 DB 30 1010 -3 1011 150 60 15 270
2013224N12220 2013 45 EP CP UNALA 2013-08-15 18:00:00 NR 12.3000 199.400 30 1010 hurdat_epa main 906 906 O_____________ hurdat_epa CP022013 12.3000 -160.600 DB 30 1010 -3 1011 150 60 15 275
2013224N12220 2013 45 EP CP UNALA 2013-08-15 21:00:00 NR 12.3922 198.665 main 942 942 P_____________ CP022013 12.3922 -161.335 DB 30 1010 -3 1011 130 55 15 278
2013224N12220 2013 45 EP CP UNALA 2013-08-16 00:00:00 NR 12.5000 197.900 30 1010 hurdat_epa main 991 991 O_____________ hurdat_epa CP022013 12.5000 -162.100 DB 30 1010 -3 1011 110 50 16 276
2013224N12220 2013 45 EP CP UNALA 2013-08-16 03:00:00 NR 12.5573 197.072 main 1043 1043 P_____________ CP022013 12.5573 -162.928 DB 30 1010 -3 1011 100 50 17 273
2013224N12220 2013 45 EP CP UNALA 2013-08-16 06:00:00 NR 12.6000 196.200 30 1010 hurdat_epa main 1114 1114 O_____________ hurdat_epa CP022013 12.6000 -163.800 DB 30 1010 -3 1011 90 50 18 273
2013224N12220 2013 45 EP CP UNALA 2013-08-16 09:00:00 NR 12.6351 195.270 main 1173 1173 P_____________ CP022013 12.6351 -164.730 DB 27 1010 -3 1011 82 45 18 273
2013224N12220 2013 45 EP CP UNALA 2013-08-16 12:00:00 NR 12.7000 194.400 25 1010 hurdat_epa main 1208 1208 O_____________ hurdat_epa CP022013 12.7000 -165.600 DB 25 1010 -3 1011 75 40 15 277
2013224N12220 2013 45 EP CP UNALA 2013-08-16 15:00:00 NR 12.8271 193.705 main 1238 1235 P_____________ CP022013 12.8271 -166.295 DB 25 1010 -3 1011 75 40 13 283
2013224N12220 2013 45 EP CP UNALA 2013-08-16 18:00:00 NR 13.0000 193.100 25 1010 hurdat_epa main 1256 1256 O_____________ hurdat_epa CP022013 13.0000 -166.900 DB 25 1010 -3 1011 75 40 13 288
2013224N12220 2013 45 EP CP UNALA 2013-08-16 21:00:00 NR 13.2074 192.485 main 1278 1276 P_____________ CP022013 13.2074 -167.515 DB 25 1010 -3 1011 67 40 12 289
2013224N12220 2013 45 EP CP UNALA 2013-08-17 00:00:00 NR 13.4000 191.900 25 1010 hurdat_epa main 1302 1302 O_____________ hurdat_epa CP022013 13.4000 -168.100 DB 25 1010 -3 1011 60 40 11 285
2013224N12220 2013 45 EP CP UNALA 2013-08-17 03:00:00 NR 13.4998 191.350 main 1338 1338 P_____________ CP022013 13.4998 -168.650 DB 25 1010 -3 1011 90 40 11 281
2013224N12220 2013 45 EP CP UNALA 2013-08-17 06:00:00 NR 13.6000 190.800 25 1010 hurdat_epa main 1368 1368 O_____________ hurdat_epa CP022013 13.6000 -169.200 DB 25 1010 -3 1011 120 40 11 284
2013224N12220 2013 45 EP CP UNALA 2013-08-17 09:00:00 NR 13.7849 190.215 main 1399 1399 P_____________ CP022013 13.7849 -169.785 DB 25 1010 -3 1011 120 40 12 289
2013224N12220 2013 45 EP CP UNALA 2013-08-17 12:00:00 NR 14.0000 189.600 25 1010 hurdat_epa main 1433 1433 O_____________ hurdat_epa CP022013 14.0000 -170.400 DB 25 1010 -3 1011 120 40 13 288
2013224N12220 2013 45 EP CP UNALA 2013-08-17 15:00:00 NR 14.1924 188.950 main 1478 1478 P_____________ CP022013 14.1924 -171.050 DB 25 1010 -3 1011 125 40 13 288
2013224N12220 2013 45 EP CP UNALA 2013-08-17 18:00:00 NR 14.4000 188.300 25 1010 hurdat_epa main 1516 1516 O_____________ hurdat_epa CP022013 14.4000 -171.700 DB 25 1010 -3 1011 130 40 13 290
2013224N12220 2013 45 EP CP UNALA 2013-08-17 21:00:00 NR 14.6423 187.685 main 1556 1550 P_____________ CP022013 14.6423 -172.315 DB 25 1009 -3 1011 130 40 13 293
2013224N12220 2013 45 EP CP UNALA 2013-08-18 00:00:00 NR 14.9000 187.100 25 1009 hurdat_epa main 1592 1592 O_____________ hurdat_epa CP022013 14.9000 -172.900 DB 25 1009 -3 1011 130 40 12 295
2013224N12220 2013 45 EP CP UNALA 2013-08-18 03:00:00 NR 15.1499 186.535 main 1636 1630 P_____________ CP022013 15.1499 -173.465 DB 27 1008 -3 1011 115 37 12 295
2013224N12220 2013 45 EP CP UNALA 2013-08-18 06:00:00 NR 15.4000 186.000 30 1008 hurdat_epa main 1666 1666 O_____________ hurdat_epa CP022013 15.4000 -174.000 DB 30 1008 -3 1011 100 35 11 296
2013224N12220 2013 45 EP CP UNALA 2013-08-18 09:00:00 NR 15.6422 185.507 main 1703 1698 P_____________ CP022013 15.6422 -174.493 DB 30 1007 -3 1011 100 32 11 297
2013224N12220 2013 45 EP CP UNALA 2013-08-18 12:00:00 TS 15.9000 184.967 30 1007 hurdat_epa main 1736 1736 O_O___________ hurdat_epa CP022013 15.9000 -175.000 DB 30 1007 -3 1011 100 30 15.9000 184.700 1 25 1008 12 299
2013224N12220 2013 45 EP CP UNALA 2013-08-18 15:00:00 TS 16.2447 184.400 main 1781 1776 P_P___________ CP022013 16.1996 -175.548 DB 30 1006 -3 1009 115 30 16.4252 -175.812 1 27 1006 14 300
2013224N12220 2013 45 EP CP UNALA 2013-08-18 18:00:00 TS 16.5818 183.745 30 1006 hurdat_epa main 1832 1832 O_O___________ hurdat_epa CP022013 16.5000 -176.200 DB 30 1006 -3 1008 130 30 16.8000 183.600 1 29 1004 15 293
2013224N12220 2013 45 EP CP UNALA 2013-08-18 21:00:00 TS 16.8275 182.940 main 1903 1903 P_P___________ CP022013 16.7727 -177.027 DB 32 1005 -3 1008 130 30 16.9371 -177.126 1 31 1003 16 285
2013224N12220 2013 45 EP CP UNALA 2013-08-19 00:00:00 TS 17.0000 182.082 35 1005 hurdat_epa main 1976 1976 OOO___________ hurdat_epa CP022013 17.0000 -177.900 TS 35 1005 0 30 30 1008 130 30 17.0000 182.300 7 35 1000 0 9 40 40 0 17.0000 182.000 2 34 1002 45 12 60 60 18 282
2013224N12220 2013 45 EP CP UNALA 2013-08-19 03:00:00 TS 17.2041 181.123 main 2069 2069 PPP___________ CP022013 17.1677 -178.682 TS 32 1006 -1 1008 125 30 17.2533 -178.848 7 35 1000 0 9 40 40 17.2160 -179.087 2 34 1002 19 283
2013224N12220 2013 45 EP CP UNALA 2013-08-19 06:00:00 TS 17.4222 180.100 30 1007 hurdat_epa main 2164 2164 OOOO__________ hurdat_epa CP022013 17.3000 -179.400 TD 30 1007 -1 1008 120 30 17.5000 180.000 3 35 1000 0 9 40 40 0 17.4000 179.900 2 34 1002 17.5000 180.000 TD 30 1000 45 16 280
2013224N12220 2013 45 WP MM UNALA 2013-08-19 09:00:00 TS 17.4817 179.479 main 2221 2221 _PPP__________ CP022013 TD -1 17.5004 179.600 3 1002 0 9 17.4443 179.237 2 31 1003 17.5004 179.600 TD 27 1002 10 273
2013224N12220 2013 45 WP MM UNALA 2013-08-19 12:00:00 TS 17.4667 179.067 1004 tokyo main 2262 _OOO__________ 17.5000 179.200 2 1004 0 0 0 17.4000 178.800 1 29 1004 17.5000 179.200 TD 25 1004 8 268

IBTrACS Databaseについて

本データベースは、米国NOAAが公開する1842年以降の世界の熱帯低気圧のベストトラックデータアーカイブInternational Best Track Archive for Climate Stewardship (IBTrACS)を、ウェブで閲覧しやすい形式に変換したものです。

最終更新日:2021-12-03